createdAt,value
2022-08-17T00:02:26.216Z,22.50
2022-08-17T00:04:54.767Z,22.50
2022-08-17T00:07:21.639Z,22.50
2022-08-17T00:09:48.367Z,22.40
2022-08-17T00:12:43.155Z,22.40
2022-08-17T00:15:02.026Z,22.40
2022-08-17T00:17:28.997Z,22.40
2022-08-17T00:19:55.592Z,22.40
2022-08-17T00:22:34.492Z,22.40
2022-08-17T00:25:07.049Z,22.40
2022-08-17T00:27:33.663Z,22.40
2022-08-17T00:30:00.366Z,22.40
2022-08-17T00:33:12.189Z,22.30
2022-08-17T00:35:17.522Z,22.30
2022-08-17T00:37:44.129Z,22.30
2022-08-17T00:40:14.148Z,22.30
2022-08-17T00:42:42.148Z,22.30
2022-08-17T00:45:11.576Z,22.30
2022-08-17T00:47:38.331Z,22.20
2022-08-17T00:50:08.572Z,22.20
2022-08-17T00:52:41.902Z,22.20
2022-08-17T00:55:09.311Z,22.20
2022-08-17T00:57:41.536Z,22.20
2022-08-17T01:00:17.124Z,22.20
2022-08-17T01:02:46.616Z,22.10
2022-08-17T01:05:26.575Z,22.20
2022-08-17T01:07:55.687Z,22.20
2022-08-17T01:10:59.417Z,22.20
2022-08-17T01:13:39.815Z,22.10
2022-08-17T01:16:26.597Z,22.10
2022-08-17T01:19:00.291Z,22.10
2022-08-17T01:21:31.675Z,22.10
2022-08-17T01:23:58.372Z,22.10
2022-08-17T01:26:25.143Z,22.10
2022-08-17T01:28:55.326Z,22.10
2022-08-17T01:31:25.242Z,22.10
2022-08-17T01:33:52.105Z,22.10
2022-08-17T01:36:19.079Z,22.10
2022-08-17T01:38:45.755Z,22.10
2022-08-17T01:41:16.442Z,22.10
2022-08-17T01:43:54.586Z,22.10
2022-08-17T01:46:30.923Z,22.10
2022-08-17T01:48:58.136Z,22.10
2022-08-17T01:51:27.658Z,22.10
2022-08-17T01:53:57.937Z,22.10
2022-08-17T01:56:26.030Z,22.10
2022-08-17T01:58:53.228Z,22.10
2022-08-17T02:01:22.661Z,22.10
2022-08-17T02:03:59.426Z,22.10
2022-08-17T02:06:44.826Z,22.10
2022-08-17T02:09:19.077Z,22.10
2022-08-17T02:11:52.068Z,22.10
2022-08-17T02:14:21.055Z,22.10
2022-08-17T02:16:47.640Z,22.10
2022-08-17T02:19:16.058Z,22.00
2022-08-17T02:21:45.423Z,22.00
2022-08-17T02:24:17.446Z,22.00
2022-08-17T02:27:04.429Z,21.90
2022-08-17T02:29:31.216Z,21.80
2022-08-17T02:31:58.499Z,21.80
2022-08-17T02:34:25.794Z,21.80
2022-08-17T02:36:53.303Z,21.70
2022-08-17T02:39:19.962Z,21.70
2022-08-17T02:41:46.606Z,21.60
2022-08-17T02:44:13.657Z,21.70
2022-08-17T02:47:00.835Z,21.70
2022-08-17T02:49:27.452Z,21.60
2022-08-17T02:51:54.071Z,21.60
2022-08-17T02:54:41.123Z,21.60
2022-08-17T02:57:07.276Z,21.60
2022-08-17T02:59:33.934Z,21.70
2022-08-17T03:02:02.441Z,21.60
2022-08-17T03:04:29.079Z,21.60
2022-08-17T03:06:55.689Z,21.70
2022-08-17T03:09:23.666Z,21.60
2022-08-17T03:11:51.715Z,21.60
2022-08-17T03:14:25.900Z,21.60
2022-08-17T03:16:53.073Z,21.60
2022-08-17T03:19:19.749Z,21.60
2022-08-17T03:21:46.385Z,21.70
2022-08-17T03:24:21.595Z,21.70
2022-08-17T03:26:55.201Z,21.70
2022-08-17T03:29:21.820Z,21.70
2022-08-17T03:31:49.450Z,21.70
2022-08-17T03:34:16.879Z,21.70
2022-08-17T03:36:43.642Z,21.70
2022-08-17T03:39:10.435Z,21.70
2022-08-17T03:41:38.796Z,21.70
2022-08-17T03:44:05.527Z,21.70
2022-08-17T03:46:50.621Z,21.60
2022-08-17T03:49:35.962Z,21.60
2022-08-17T03:52:21.344Z,21.50
2022-08-17T03:55:06.694Z,21.40
2022-08-17T03:57:33.341Z,21.30
2022-08-17T04:00:00.037Z,21.30
2022-08-17T04:02:32.061Z,21.30
2022-08-17T04:04:59.468Z,21.30
2022-08-17T04:07:28.448Z,21.30
2022-08-17T04:09:55.679Z,21.20
2022-08-17T04:12:25.642Z,21.20
2022-08-17T04:14:54.715Z,21.30
2022-08-17T04:17:24.519Z,21.20
2022-08-17T04:19:51.631Z,21.30
2022-08-17T04:22:32.421Z,21.20
2022-08-17T04:25:16.330Z,21.20
2022-08-17T04:27:42.986Z,21.20
2022-08-17T04:30:10.412Z,21.20
2022-08-17T04:33:05.271Z,21.20
2022-08-17T04:35:37.036Z,21.20
2022-08-17T04:38:04.215Z,21.10
2022-08-17T04:40:49.403Z,21.10
2022-08-17T04:43:19.099Z,21.10
2022-08-17T04:45:56.397Z,21.10
2022-08-17T04:48:29.762Z,21.10
2022-08-17T04:51:03.035Z,21.00
2022-08-17T04:53:29.804Z,21.00
2022-08-17T04:55:58.883Z,21.00
2022-08-17T04:58:25.825Z,21.00
2022-08-17T05:00:52.656Z,20.90
2022-08-17T05:03:19.408Z,21.00
2022-08-17T05:05:52.158Z,21.00
2022-08-17T05:08:20.480Z,21.00
2022-08-17T05:10:48.177Z,20.90
2022-08-17T05:13:20.294Z,20.90
2022-08-17T05:15:48.974Z,20.90
2022-08-17T05:18:17.351Z,20.90
2022-08-17T05:20:44.899Z,20.90
2022-08-17T05:23:14.767Z,20.90
2022-08-17T05:25:47.466Z,20.90
2022-08-17T05:28:15.998Z,20.90
2022-08-17T05:30:43.631Z,20.90
2022-08-17T05:33:16.687Z,20.90
2022-08-17T05:35:49.329Z,20.90
2022-08-17T05:38:21.535Z,20.90
2022-08-17T05:40:49.012Z,20.90
2022-08-17T05:43:19.245Z,20.90
2022-08-17T05:45:57.693Z,20.80
2022-08-17T05:48:35.536Z,20.90
2022-08-17T05:51:25.751Z,20.90
2022-08-17T05:54:04.455Z,20.90
2022-08-17T05:57:08.849Z,21.00
2022-08-17T05:59:48.514Z,20.90
2022-08-17T06:02:47.858Z,20.90
2022-08-17T06:05:52.099Z,20.90
2022-08-17T06:08:37.736Z,20.90
2022-08-17T06:11:16.472Z,20.90
2022-08-17T06:14:05.373Z,20.90
2022-08-17T06:16:37.344Z,20.90
2022-08-17T06:19:23.342Z,20.90
2022-08-17T06:21:52.964Z,20.90
2022-08-17T06:24:28.459Z,20.90
2022-08-17T06:27:01.113Z,20.90
2022-08-17T06:29:35.327Z,20.90
2022-08-17T06:32:02.692Z,21.00
2022-08-17T06:34:29.811Z,21.00
2022-08-17T06:37:22.132Z,21.00
2022-08-17T06:40:18.453Z,21.00
2022-08-17T06:43:32.609Z,21.00
2022-08-17T06:46:11.401Z,21.10
2022-08-17T06:48:49.047Z,21.20
2022-08-17T06:51:34.529Z,21.20
2022-08-17T06:54:16.659Z,21.20
2022-08-17T06:56:53.694Z,21.20
2022-08-17T06:59:54.384Z,21.20
2022-08-17T07:02:54.245Z,21.30
2022-08-17T07:05:25.345Z,21.30
2022-08-17T07:08:07.270Z,21.40
2022-08-17T07:10:44.761Z,21.40
2022-08-17T07:13:25.363Z,21.40
2022-08-17T07:15:59.704Z,21.50
2022-08-17T07:18:29.552Z,21.50
2022-08-17T07:21:03.816Z,21.50
2022-08-17T07:23:47.303Z,21.60
2022-08-17T07:26:14.074Z,21.60
2022-08-17T07:28:42.318Z,21.60
2022-08-17T07:31:13.197Z,21.60
2022-08-17T07:33:40.914Z,21.60
2022-08-17T07:36:29.646Z,21.60
2022-08-17T07:38:58.159Z,21.60
2022-08-17T07:41:24.918Z,21.70
2022-08-17T07:43:52.753Z,21.60
2022-08-17T07:46:40.696Z,21.70
2022-08-17T07:49:10.062Z,21.70
2022-08-17T07:51:55.294Z,21.70
2022-08-17T07:54:29.487Z,21.70
2022-08-17T07:57:29.981Z,21.70
2022-08-17T07:59:59.785Z,21.70
2022-08-17T08:02:41.389Z,21.70
2022-08-17T08:05:29.868Z,21.70
2022-08-17T08:08:28.381Z,21.80
2022-08-17T08:11:02.792Z,21.80
2022-08-17T08:13:31.608Z,21.80
2022-08-17T08:16:24.512Z,21.80
2022-08-17T08:18:57.247Z,21.80
2022-08-17T08:21:43.321Z,21.80
2022-08-17T08:24:40.088Z,21.80
2022-08-17T08:27:28.988Z,21.70
2022-08-17T08:30:08.154Z,21.70
2022-08-17T08:32:59.508Z,21.70
2022-08-17T08:35:31.031Z,21.70
2022-08-17T08:38:23.192Z,21.80
2022-08-17T08:40:49.760Z,21.80
2022-08-17T08:43:37.340Z,21.80
2022-08-17T08:46:25.684Z,21.90
2022-08-17T08:49:45.176Z,21.90
2022-08-17T08:52:36.721Z,22.00
2022-08-17T08:55:15.356Z,22.10
2022-08-17T08:57:52.819Z,22.10
2022-08-17T09:00:25.260Z,22.20
2022-08-17T09:03:10.889Z,22.20
2022-08-17T09:06:32.283Z,22.30
2022-08-17T09:09:35.666Z,22.30
2022-08-17T09:12:21.203Z,22.20
2022-08-17T09:15:13.328Z,22.20
2022-08-17T09:18:59.039Z,22.20
2022-08-17T09:20:55.467Z,22.10
2022-08-17T09:23:34.678Z,22.10
2022-08-17T09:26:10.162Z,22.10
2022-08-17T09:28:40.064Z,22.10
2022-08-17T09:31:10.270Z,22.10
2022-08-17T09:33:46.749Z,22.00
2022-08-17T09:36:26.597Z,21.90
2022-08-17T09:39:15.746Z,21.90
2022-08-17T09:42:06.773Z,21.90
2022-08-17T09:44:39.794Z,21.90
2022-08-17T09:47:33.389Z,21.80
2022-08-17T09:50:11.413Z,21.80
2022-08-17T09:52:38.100Z,21.80
2022-08-17T09:55:06.308Z,21.70
2022-08-17T09:57:44.383Z,21.50
2022-08-17T10:00:16.441Z,21.40
2022-08-17T10:03:02.520Z,21.20
2022-08-17T10:05:48.318Z,21.20
2022-08-17T10:08:32.808Z,21.10
2022-08-17T10:11:16.598Z,21.10
2022-08-17T10:13:54.676Z,21.10
2022-08-17T10:16:48.988Z,21.10
2022-08-17T10:19:25.249Z,21.20
2022-08-17T10:22:32.986Z,21.20
2022-08-17T10:25:24.224Z,21.20
2022-08-17T10:27:59.724Z,21.30
2022-08-17T10:30:29.804Z,21.40
2022-08-17T10:33:02.217Z,21.40
2022-08-17T10:35:46.905Z,21.40
2022-08-17T10:38:26.479Z,21.40
2022-08-17T10:41:24.558Z,21.40
2022-08-17T10:44:38.602Z,21.40
2022-08-17T10:47:15.285Z,21.40
2022-08-17T10:49:53.811Z,21.50
2022-08-17T10:52:20.715Z,21.50
2022-08-17T10:54:58.053Z,21.60
2022-08-17T10:57:33.989Z,21.60
2022-08-17T11:00:05.137Z,21.70
2022-08-17T11:02:42.537Z,21.70
2022-08-17T11:05:22.169Z,21.70
2022-08-17T11:08:19.044Z,21.70
2022-08-17T11:11:04.881Z,21.70
2022-08-17T11:13:48.421Z,21.70
2022-08-17T11:16:33.146Z,21.70
2022-08-17T11:19:41.728Z,21.70
2022-08-17T11:22:33.917Z,21.70
2022-08-17T11:25:31.107Z,21.70
2022-08-17T11:28:25.544Z,21.60
2022-08-17T11:31:01.153Z,21.60
2022-08-17T11:33:38.265Z,21.60
2022-08-17T11:36:35.773Z,21.60
2022-08-17T11:39:24.344Z,21.60
2022-08-17T11:41:56.974Z,21.60
2022-08-17T11:44:46.707Z,21.60
2022-08-17T11:48:24.264Z,21.50
2022-08-17T11:51:12.750Z,21.50
2022-08-17T11:53:39.356Z,21.40
2022-08-17T11:56:26.714Z,21.40
2022-08-17T11:58:53.326Z,21.40
2022-08-17T12:01:22.656Z,21.40
2022-08-17T12:04:00.841Z,21.30
2022-08-17T12:06:35.061Z,21.30
2022-08-17T12:09:11.997Z,21.30
2022-08-17T12:11:55.124Z,21.30
2022-08-17T12:15:07.983Z,21.30
2022-08-17T12:17:39.175Z,21.30
2022-08-17T12:20:22.082Z,21.20
2022-08-17T12:23:12.568Z,21.20
2022-08-17T12:25:49.277Z,21.20
2022-08-17T12:28:35.788Z,21.20
2022-08-17T12:37:54.662Z,21.20
2022-08-17T12:44:31.924Z,21.30
2022-08-17T12:47:22.236Z,21.30
2022-08-17T12:49:54.708Z,21.30
2022-08-17T12:52:27.221Z,21.30
2022-08-17T12:55:06.895Z,21.30
2022-08-17T12:57:44.099Z,21.30
2022-08-17T13:00:17.539Z,21.30
2022-08-17T13:02:52.102Z,21.30
2022-08-17T13:05:37.775Z,21.20
2022-08-17T13:08:15.845Z,21.20
2022-08-17T13:10:42.996Z,21.20
2022-08-17T13:13:45.581Z,21.20
2022-08-17T13:16:12.196Z,21.20
2022-08-17T13:18:47.498Z,21.20
2022-08-17T13:21:20.041Z,21.30
2022-08-17T13:24:14.617Z,21.30
2022-08-17T13:26:46.366Z,21.30
2022-08-17T13:29:41.154Z,21.30
2022-08-17T13:32:13.485Z,21.30
2022-08-17T13:35:15.377Z,21.30
2022-08-17T13:38:20.066Z,21.30
2022-08-17T13:40:58.457Z,21.30
2022-08-17T13:49:49.185Z,21.30
2022-08-17T13:52:41.650Z,21.30
2022-08-17T13:55:37.234Z,21.30
2022-08-17T14:02:10.484Z,21.40
2022-08-17T14:04:54.444Z,21.40
2022-08-17T14:10:19.817Z,21.40
2022-08-17T14:13:02.741Z,21.50
2022-08-17T14:15:55.581Z,21.40
2022-08-17T14:18:56.413Z,21.50
2022-08-17T14:21:30.878Z,21.50
2022-08-17T14:27:52.977Z,21.60
2022-08-17T14:30:29.004Z,21.70
2022-08-17T14:38:59.902Z,21.80
2022-08-17T14:44:23.680Z,21.90
2022-08-17T14:47:39.870Z,22.00
2022-08-17T14:57:22.231Z,22.10
2022-08-17T15:15:23.286Z,22.00
2022-08-17T15:17:53.142Z,22.10
2022-08-17T15:23:23.109Z,22.10
2022-08-17T15:25:58.158Z,22.10
2022-08-17T15:28:56.079Z,22.10
2022-08-17T15:31:31.869Z,22.10
2022-08-17T15:33:59.174Z,22.10
2022-08-17T15:36:33.452Z,22.10
2022-08-17T15:39:01.901Z,22.10
2022-08-17T15:41:34.031Z,22.10
2022-08-17T15:44:00.653Z,22.10
2022-08-17T15:46:29.262Z,22.10
2022-08-17T15:48:59.726Z,22.20
2022-08-17T15:52:14.120Z,22.20
2022-08-17T15:54:40.846Z,22.30
2022-08-17T15:57:12.048Z,22.30
2022-08-17T15:59:41.326Z,22.30
2022-08-17T16:03:14.331Z,22.40
2022-08-17T16:05:12.019Z,22.40
2022-08-17T16:07:40.573Z,22.40
2022-08-17T16:10:08.504Z,22.50
2022-08-17T16:12:35.687Z,22.50
2022-08-17T16:15:02.772Z,22.50
2022-08-17T16:17:39.830Z,22.50
2022-08-17T16:20:09.568Z,22.50
2022-08-17T16:22:47.954Z,22.50
2022-08-17T16:25:19.106Z,22.60
2022-08-17T16:27:48.583Z,22.60
2022-08-17T16:30:17.644Z,22.70
2022-08-17T16:32:44.846Z,22.80
2022-08-17T16:35:14.258Z,22.70
2022-08-17T16:37:44.596Z,22.70
2022-08-17T16:40:14.195Z,22.70
2022-08-17T16:42:42.744Z,22.70
2022-08-17T16:45:11.772Z,22.70
2022-08-17T16:47:40.811Z,22.80
2022-08-17T16:50:09.452Z,22.70
2022-08-17T16:52:36.585Z,22.70
2022-08-17T16:55:05.205Z,22.60
2022-08-17T16:57:31.992Z,22.60
2022-08-17T16:59:58.625Z,22.50
2022-08-17T17:02:32.827Z,22.60
2022-08-17T17:05:22.108Z,22.50
2022-08-17T17:08:08.911Z,22.50
2022-08-17T17:10:38.731Z,22.50
2022-08-17T17:13:12.581Z,22.50
2022-08-17T17:15:55.107Z,22.50
2022-08-17T17:18:31.752Z,22.40
2022-08-17T17:20:59.228Z,22.40
2022-08-17T17:23:37.793Z,22.40
2022-08-17T17:26:19.954Z,22.40
2022-08-17T17:29:33.987Z,22.30
2022-08-17T17:32:21.796Z,22.30
2022-08-17T17:34:53.804Z,22.30
2022-08-17T17:37:27.308Z,22.30
2022-08-17T17:39:59.108Z,22.30
2022-08-17T17:42:31.314Z,22.30
2022-08-17T17:45:07.246Z,22.30
2022-08-17T17:47:34.914Z,22.30
2022-08-17T17:50:03.624Z,22.20
2022-08-17T17:52:41.293Z,22.20
2022-08-17T17:55:32.821Z,22.20
2022-08-17T17:58:08.375Z,22.20
2022-08-17T18:00:44.079Z,22.20
2022-08-17T18:03:23.837Z,22.20
2022-08-17T18:06:39.652Z,22.10
2022-08-17T18:09:12.280Z,22.10
2022-08-17T18:12:14.564Z,22.10
2022-08-17T18:14:58.439Z,22.10
2022-08-17T18:17:25.073Z,22.10
2022-08-17T18:19:55.236Z,22.10
2022-08-17T18:22:23.515Z,22.10
2022-08-17T18:24:55.848Z,22.10
2022-08-17T18:27:37.169Z,22.10
2022-08-17T18:30:27.226Z,22.00
2022-08-17T18:32:53.945Z,22.00
2022-08-17T18:35:22.143Z,22.00
2022-08-17T18:38:19.440Z,21.90
2022-08-17T18:40:57.162Z,21.80
2022-08-17T18:43:27.593Z,21.80
2022-08-17T18:46:41.778Z,21.80
2022-08-17T18:49:26.939Z,21.80
2022-08-17T18:52:22.581Z,21.70
2022-08-17T18:55:28.298Z,21.70
2022-08-17T18:58:14.461Z,21.70
2022-08-17T19:00:43.666Z,21.70
2022-08-17T19:03:16.588Z,21.60
2022-08-17T19:05:52.684Z,21.60
2022-08-17T19:08:39.567Z,21.60
2022-08-17T19:11:09.144Z,21.70
2022-08-17T19:13:47.517Z,21.60
2022-08-17T19:16:29.244Z,21.60
2022-08-17T19:19:16.024Z,21.60
2022-08-17T19:21:53.114Z,21.60
2022-08-17T19:24:20.896Z,21.50
2022-08-17T19:27:03.009Z,21.50
2022-08-17T19:29:41.083Z,21.50
2022-08-17T19:32:09.930Z,21.50
2022-08-17T19:34:37.984Z,21.50
2022-08-17T19:37:42.095Z,21.50
2022-08-17T19:40:51.581Z,21.50
2022-08-17T19:43:26.784Z,21.50
2022-08-17T19:46:25.832Z,21.40
2022-08-17T19:49:06.037Z,21.40
2022-08-17T19:51:45.656Z,21.40
2022-08-17T19:54:28.868Z,21.30
2022-08-17T19:57:40.682Z,21.30
2022-08-17T20:00:18.115Z,21.30
2022-08-17T20:03:08.136Z,21.30
2022-08-17T20:06:11.394Z,21.30
2022-08-17T20:08:52.125Z,21.30
2022-08-17T20:11:46.708Z,21.20
2022-08-17T20:14:21.905Z,21.20
2022-08-17T20:16:48.716Z,21.20
2022-08-17T20:19:27.653Z,21.20
2022-08-17T20:22:09.379Z,21.10
2022-08-17T20:25:09.679Z,21.10
2022-08-17T20:28:00.639Z,21.10
2022-08-17T20:30:40.923Z,21.10
2022-08-17T20:33:32.384Z,21.10
2022-08-17T20:36:14.222Z,21.00
2022-08-17T20:38:47.633Z,21.00
2022-08-17T20:41:18.116Z,21.00
2022-08-17T20:44:00.965Z,21.00
2022-08-17T20:46:36.718Z,21.00
2022-08-17T20:49:38.498Z,20.90
2022-08-17T20:52:08.868Z,20.90
2022-08-17T20:55:08.084Z,20.90
2022-08-17T20:57:34.682Z,20.80
2022-08-17T21:00:14.409Z,20.80
2022-08-17T21:02:46.089Z,20.80
2022-08-17T21:06:00.331Z,20.80
2022-08-17T21:08:33.224Z,20.80
2022-08-17T21:11:20.837Z,20.80
2022-08-17T21:14:31.728Z,20.80
2022-08-17T21:17:19.444Z,20.80
2022-08-17T21:20:14.730Z,20.70
2022-08-17T21:23:16.471Z,20.70
2022-08-17T21:26:09.700Z,20.70
2022-08-17T21:29:32.419Z,20.60
2022-08-17T21:32:03.425Z,20.60
2022-08-17T21:34:34.588Z,20.60
2022-08-17T21:37:19.954Z,20.60
2022-08-17T21:39:54.963Z,20.60
2022-08-17T21:42:29.621Z,20.50
2022-08-17T21:45:00.568Z,20.50
2022-08-17T21:47:29.799Z,20.50
2022-08-17T21:50:15.927Z,20.50
2022-08-17T21:52:43.403Z,20.50
2022-08-17T21:55:20.248Z,20.50
2022-08-17T21:57:53.107Z,20.40
2022-08-17T22:00:35.452Z,20.40
2022-08-17T22:03:06.655Z,20.40
2022-08-17T22:05:37.812Z,20.40
2022-08-17T22:08:09.272Z,20.40
2022-08-17T22:10:44.903Z,20.40
2022-08-17T22:13:17.103Z,20.30
2022-08-17T22:15:47.056Z,20.30
2022-08-17T22:18:21.359Z,20.30
2022-08-17T22:20:54.607Z,20.30
2022-08-17T22:23:53.518Z,20.20
2022-08-17T22:26:22.472Z,20.20
2022-08-17T22:28:52.969Z,20.20
2022-08-17T22:31:25.521Z,20.20
2022-08-17T22:33:52.106Z,20.20
2022-08-17T22:36:41.828Z,20.10
2022-08-17T22:39:08.387Z,20.10
2022-08-17T22:41:48.019Z,20.10
2022-08-17T22:44:19.772Z,20.00
2022-08-17T22:47:11.366Z,20.00
2022-08-17T22:49:53.216Z,20.00
2022-08-17T22:52:56.630Z,20.00
2022-08-17T22:55:42.003Z,19.90
2022-08-17T22:58:40.013Z,19.90
2022-08-17T23:01:31.482Z,19.80
2022-08-17T23:04:01.394Z,19.80
2022-08-17T23:06:29.683Z,19.80
2022-08-17T23:08:57.499Z,19.80
2022-08-17T23:11:36.955Z,19.70
2022-08-17T23:14:15.670Z,19.70
2022-08-17T23:16:42.771Z,19.70
2022-08-17T23:19:15.193Z,19.60
2022-08-17T23:21:44.611Z,19.60
2022-08-17T23:24:16.920Z,19.60
2022-08-17T23:26:43.547Z,19.60
2022-08-17T23:29:10.140Z,19.60
2022-08-17T23:31:38.764Z,19.60
2022-08-17T23:34:09.849Z,19.60
2022-08-17T23:36:36.474Z,19.50
2022-08-17T23:39:05.383Z,19.50
2022-08-17T23:41:36.254Z,19.50
2022-08-17T23:44:05.496Z,19.50
2022-08-17T23:46:32.720Z,19.50
2022-08-17T23:48:59.502Z,19.50
2022-08-17T23:51:31.379Z,19.50
2022-08-17T23:54:08.168Z,19.50
2022-08-17T23:56:41.731Z,19.40
2022-08-17T23:59:08.322Z,19.50
